createdAt,value
2022-09-16T00:02:05.122Z,1.60
2022-09-16T00:04:32.294Z,1.90
2022-09-16T00:06:59.143Z,1.60
2022-09-16T00:09:26.503Z,1.70
2022-09-16T00:11:53.827Z,1.70
2022-09-16T00:14:20.608Z,1.40
2022-09-16T00:16:47.560Z,1.00
2022-09-16T00:19:14.408Z,1.20
2022-09-16T00:21:41.254Z,1.50
2022-09-16T00:24:10.563Z,1.40
2022-09-16T00:26:38.806Z,1.30
2022-09-16T00:29:05.591Z,1.20
2022-09-16T00:31:32.488Z,1.40
2022-09-16T00:33:59.362Z,1.60
2022-09-16T00:36:26.236Z,1.40
2022-09-16T00:38:55.262Z,0.90
2022-09-16T00:41:27.618Z,0.90
2022-09-16T00:43:54.458Z,1.10
2022-09-16T00:46:33.824Z,1.10
2022-09-16T00:49:03.221Z,1.10
2022-09-16T00:51:30.771Z,0.90
2022-09-16T00:54:03.456Z,1.20
2022-09-16T00:56:31.684Z,1.10
2022-09-16T00:59:08.877Z,1.20
2022-09-16T01:01:36.316Z,0.90
2022-09-16T01:04:09.289Z,1.10
2022-09-16T01:06:37.588Z,1.00
2022-09-16T01:09:04.691Z,1.00
2022-09-16T01:11:32.152Z,1.10
2022-09-16T01:14:19.680Z,1.00
2022-09-16T01:16:58.373Z,1.10
2022-09-16T01:19:26.590Z,1.20
2022-09-16T01:22:09.201Z,1.30
2022-09-16T01:24:48.850Z,1.50
2022-09-16T01:27:48.672Z,1.20
2022-09-16T01:30:39.681Z,1.00
2022-09-16T01:33:12.834Z,1.00
2022-09-16T01:35:45.278Z,1.20
2022-09-16T01:38:23.468Z,1.20
2022-09-16T01:41:03.933Z,1.30
2022-09-16T01:43:54.969Z,1.00
2022-09-16T01:46:40.275Z,1.30
2022-09-16T01:49:40.870Z,1.10
2022-09-16T01:52:07.615Z,1.20
2022-09-16T01:54:40.098Z,1.20
2022-09-16T01:57:11.856Z,0.90
2022-09-16T01:59:43.322Z,1.00
2022-09-16T02:02:16.959Z,1.00
2022-09-16T02:04:50.239Z,1.20
2022-09-16T02:07:18.298Z,1.30
2022-09-16T02:09:48.946Z,1.00
2022-09-16T02:12:21.306Z,1.30
2022-09-16T02:14:48.559Z,1.20
2022-09-16T02:17:16.734Z,1.40
2022-09-16T02:19:49.114Z,1.70
2022-09-16T02:22:19.364Z,1.50
2022-09-16T02:24:47.109Z,1.00
2022-09-16T02:27:16.983Z,1.20
2022-09-16T02:29:47.076Z,1.30
2022-09-16T02:32:13.817Z,1.70
2022-09-16T02:34:43.321Z,1.20
2022-09-16T02:37:22.788Z,1.40
2022-09-16T02:39:50.800Z,1.30
2022-09-16T02:42:17.599Z,1.30
2022-09-16T02:44:44.824Z,1.40
2022-09-16T02:47:28.151Z,1.00
2022-09-16T02:49:56.470Z,0.90
2022-09-16T02:52:49.699Z,1.10
2022-09-16T02:55:25.140Z,1.20
2022-09-16T02:57:51.982Z,1.30
2022-09-16T03:00:20.678Z,2.00
2022-09-16T03:02:48.064Z,1.80
2022-09-16T03:05:14.977Z,1.10
2022-09-16T03:07:41.822Z,1.20
2022-09-16T03:10:15.383Z,1.40
2022-09-16T03:12:46.262Z,1.10
2022-09-16T03:15:32.257Z,1.30
2022-09-16T03:18:05.773Z,1.40
2022-09-16T03:20:54.523Z,1.30
2022-09-16T03:23:47.787Z,1.50
2022-09-16T03:26:30.509Z,1.20
2022-09-16T03:29:26.133Z,1.30
2022-09-16T03:32:32.932Z,1.40
2022-09-16T03:35:07.033Z,1.00
2022-09-16T03:37:35.652Z,1.30
2022-09-16T03:40:05.932Z,1.10
2022-09-16T03:42:32.715Z,1.30
2022-09-16T03:44:59.749Z,1.10
2022-09-16T03:47:26.496Z,1.10
2022-09-16T03:49:53.246Z,1.20
2022-09-16T03:52:20.912Z,1.20
2022-09-16T03:54:48.248Z,1.30
2022-09-16T03:57:15.027Z,1.60
2022-09-16T03:59:42.285Z,1.10
2022-09-16T04:02:09.130Z,1.30
2022-09-16T04:04:36.536Z,1.10
2022-09-16T04:07:03.650Z,0.90
2022-09-16T04:09:30.901Z,1.50
2022-09-16T04:11:57.652Z,1.10
2022-09-16T04:14:24.502Z,1.00
2022-09-16T04:16:51.866Z,1.10
2022-09-16T04:19:18.709Z,1.20
2022-09-16T04:21:45.666Z,1.30
2022-09-16T04:24:13.667Z,0.90
2022-09-16T04:26:41.607Z,1.20
2022-09-16T04:29:09.387Z,1.30
2022-09-16T04:31:36.222Z,1.10
2022-09-16T04:34:03.686Z,1.30
2022-09-16T04:36:30.625Z,1.20
2022-09-16T04:38:57.983Z,1.30
2022-09-16T04:41:25.952Z,1.00
2022-09-16T04:43:54.229Z,1.30
2022-09-16T04:46:21.136Z,1.30
2022-09-16T04:48:49.008Z,1.60
2022-09-16T04:51:16.116Z,1.60
2022-09-16T04:53:46.477Z,1.20
2022-09-16T04:56:19.087Z,1.20
2022-09-16T04:58:48.106Z,1.00
2022-09-16T05:01:16.630Z,1.20
2022-09-16T05:03:44.903Z,1.40
2022-09-16T05:06:18.353Z,1.30
2022-09-16T05:08:48.860Z,1.40
2022-09-16T05:11:19.500Z,1.50
2022-09-16T05:16:15.167Z,1.50
2022-09-16T05:18:43.088Z,1.50
2022-09-16T05:21:12.742Z,1.60
2022-09-16T05:23:45.944Z,1.80
2022-09-16T05:26:24.974Z,1.50
2022-09-16T05:28:52.063Z,1.80
2022-09-16T05:31:25.644Z,1.50
2022-09-16T05:34:14.421Z,1.90
2022-09-16T05:36:43.847Z,1.70
2022-09-16T05:39:23.641Z,1.90
2022-09-16T05:44:19.911Z,1.80
2022-09-16T05:46:47.367Z,2.30
2022-09-16T05:49:21.217Z,2.20
2022-09-16T05:51:48.846Z,1.80
2022-09-16T05:54:18.389Z,1.90
2022-09-16T05:56:45.802Z,1.90
2022-09-16T05:59:13.554Z,2.00
2022-09-16T06:01:41.273Z,1.90
2022-09-16T06:04:11.959Z,1.70
2022-09-16T06:06:45.880Z,2.30
2022-09-16T06:09:20.102Z,2.00
2022-09-16T06:11:49.303Z,2.40
2022-09-16T06:14:17.135Z,1.60
2022-09-16T06:16:44.182Z,1.80
2022-09-16T06:19:13.607Z,1.60
2022-09-16T06:21:41.145Z,2.10
2022-09-16T06:24:10.766Z,2.50
2022-09-16T06:26:39.461Z,2.30
2022-09-16T06:29:07.099Z,2.60
2022-09-16T06:31:34.140Z,2.20
2022-09-16T06:34:01.089Z,2.00
2022-09-16T06:36:29.770Z,2.20
2022-09-16T06:38:57.003Z,2.30
2022-09-16T06:41:24.273Z,2.30
2022-09-16T06:43:52.139Z,2.00
2022-09-16T06:46:23.857Z,2.00
2022-09-16T06:48:52.697Z,2.20
2022-09-16T06:54:23.831Z,2.80
2022-09-16T06:56:51.387Z,2.40
2022-09-16T06:59:18.374Z,2.40
2022-09-16T07:01:45.512Z,2.50
2022-09-16T07:04:13.667Z,2.10
2022-09-16T07:07:10.940Z,1.90
2022-09-16T07:09:28.023Z,2.30
2022-09-16T07:11:55.589Z,2.90
2022-09-16T07:14:23.144Z,2.60
2022-09-16T07:16:50.260Z,2.10
2022-09-16T07:19:17.133Z,2.60
2022-09-16T07:21:44.146Z,2.00
2022-09-16T07:24:12.877Z,2.30
2022-09-16T07:26:40.684Z,2.20
2022-09-16T07:29:11.371Z,1.90
2022-09-16T07:31:38.816Z,2.40
2022-09-16T07:34:06.950Z,1.70
2022-09-16T07:36:36.157Z,2.30
2022-09-16T07:39:04.051Z,1.80
2022-09-16T07:41:34.277Z,2.30
2022-09-16T07:44:02.078Z,2.20
2022-09-16T07:46:30.651Z,1.90
2022-09-16T07:48:58.482Z,2.30
2022-09-16T07:51:26.131Z,2.50
2022-09-16T07:53:55.349Z,2.20
2022-09-16T07:56:25.510Z,1.70
2022-09-16T07:58:53.840Z,1.60
2022-09-16T08:01:20.832Z,1.60
2022-09-16T08:03:47.985Z,1.50
2022-09-16T08:06:22.384Z,1.90
2022-09-16T08:08:55.543Z,1.70
2022-09-16T08:11:22.589Z,1.50
2022-09-16T08:13:49.841Z,1.60
2022-09-16T08:16:19.301Z,1.50
2022-09-16T08:18:48.106Z,1.60
2022-09-16T08:21:16.817Z,1.40
2022-09-16T08:23:47.044Z,1.50
2022-09-16T08:26:16.237Z,1.90
2022-09-16T08:29:07.332Z,1.60
2022-09-16T08:31:32.271Z,1.20
2022-09-16T08:33:59.704Z,3.40
2022-09-16T08:36:29.151Z,1.50
2022-09-16T08:38:56.953Z,1.40
2022-09-16T08:41:47.677Z,1.40
2022-09-16T08:44:33.950Z,2.30
2022-09-16T08:47:02.559Z,1.10
2022-09-16T08:49:43.957Z,1.60
2022-09-16T08:52:23.405Z,1.30
2022-09-16T08:54:53.674Z,1.10
2022-09-16T08:57:22.867Z,1.00
2022-09-16T08:59:55.709Z,1.50
2022-09-16T09:02:38.368Z,1.30
2022-09-16T09:05:27.390Z,1.20
2022-09-16T09:07:55.058Z,1.10
2022-09-16T09:10:28.665Z,1.50
2022-09-16T09:13:14.102Z,1.30
2022-09-16T09:15:52.467Z,1.20
2022-09-16T09:18:39.287Z,0.80
2022-09-16T09:21:27.502Z,1.00
2022-09-16T09:24:24.891Z,1.70
2022-09-16T09:26:53.175Z,1.20
2022-09-16T09:29:38.858Z,1.40
2022-09-16T09:32:49.031Z,1.50
2022-09-16T09:35:41.665Z,1.00
2022-09-16T09:38:17.829Z,2.00
2022-09-16T09:40:56.762Z,0.90
2022-09-16T09:43:41.422Z,1.40
2022-09-16T09:46:26.600Z,1.10
2022-09-16T09:49:15.563Z,0.90
2022-09-16T09:52:10.772Z,2.20
2022-09-16T09:54:39.395Z,1.20
2022-09-16T09:57:37.743Z,1.20
2022-09-16T10:00:15.341Z,1.00
2022-09-16T10:02:49.658Z,0.90
2022-09-16T10:05:25.519Z,1.00
2022-09-16T10:07:53.423Z,1.70
2022-09-16T10:10:24.845Z,0.90
2022-09-16T10:12:51.997Z,1.10
2022-09-16T10:15:45.058Z,0.90
2022-09-16T10:18:27.265Z,1.40
2022-09-16T10:21:07.173Z,0.80
2022-09-16T10:23:34.580Z,1.70
2022-09-16T10:26:19.637Z,1.20
2022-09-16T10:29:02.070Z,1.90
2022-09-16T10:31:35.848Z,0.80
2022-09-16T10:34:03.942Z,1.00
2022-09-16T10:36:34.660Z,0.90
2022-09-16T10:39:04.655Z,1.10
2022-09-16T10:41:34.409Z,1.10
2022-09-16T10:44:22.960Z,0.70
2022-09-16T10:47:01.173Z,0.80
2022-09-16T10:49:55.264Z,0.80
2022-09-16T10:52:24.908Z,0.60
2022-09-16T10:54:52.434Z,1.10
2022-09-16T10:57:25.522Z,1.10
2022-09-16T11:00:01.072Z,1.00
2022-09-16T11:02:55.565Z,0.90
2022-09-16T11:05:51.139Z,0.90
2022-09-16T11:08:43.540Z,0.60
2022-09-16T11:11:20.432Z,0.60
2022-09-16T11:14:06.194Z,2.10
2022-09-16T11:16:49.114Z,0.70
2022-09-16T11:19:28.650Z,0.80
2022-09-16T11:22:05.766Z,0.80
2022-09-16T11:25:08.316Z,0.80
2022-09-16T11:27:53.895Z,0.90
2022-09-16T11:30:22.595Z,1.10
2022-09-16T11:33:27.990Z,0.70
2022-09-16T11:36:30.609Z,0.80
2022-09-16T11:39:16.294Z,0.90
2022-09-16T11:42:01.568Z,0.90
2022-09-16T11:45:07.473Z,0.50
2022-09-16T11:47:48.911Z,1.00
2022-09-16T11:50:49.855Z,0.80
2022-09-16T11:53:41.668Z,0.90
2022-09-16T11:56:22.660Z,1.10
2022-09-16T11:59:04.259Z,0.90
2022-09-16T12:01:39.971Z,0.60
2022-09-16T12:04:27.084Z,1.00
2022-09-16T12:07:13.661Z,0.90
2022-09-16T12:09:45.341Z,0.70
2022-09-16T12:12:14.827Z,0.90
2022-09-16T12:14:44.011Z,1.50
2022-09-16T12:17:24.594Z,1.20
2022-09-16T12:20:12.375Z,1.30
2022-09-16T12:22:49.569Z,1.30
2022-09-16T12:25:22.658Z,1.20
2022-09-16T12:27:58.108Z,0.90
2022-09-16T12:30:31.208Z,0.80
2022-09-16T12:33:06.553Z,0.90
2022-09-16T12:35:34.901Z,1.20
2022-09-16T12:38:01.986Z,1.20
2022-09-16T12:40:50.649Z,1.80
2022-09-16T12:43:37.155Z,0.90
2022-09-16T12:46:07.307Z,1.20
2022-09-16T12:48:52.964Z,1.10
2022-09-16T12:52:11.117Z,1.50
2022-09-16T12:55:14.400Z,1.20
2022-09-16T12:58:00.524Z,0.90
2022-09-16T13:00:41.878Z,1.20
2022-09-16T13:03:17.463Z,1.10
2022-09-16T13:05:47.991Z,1.10
2022-09-16T13:08:27.840Z,1.10
2022-09-16T13:11:20.935Z,1.00
2022-09-16T13:14:03.826Z,0.70
2022-09-16T13:16:36.097Z,0.90
2022-09-16T13:19:22.209Z,0.50
2022-09-16T13:21:49.917Z,0.90
2022-09-16T13:24:45.150Z,0.80
2022-09-16T13:27:32.950Z,1.10
2022-09-16T13:30:09.895Z,0.70
2022-09-16T13:32:41.044Z,0.80
2022-09-16T13:35:21.353Z,0.70
2022-09-16T13:40:30.762Z,0.70
2022-09-16T13:43:10.100Z,0.70
2022-09-16T13:45:38.060Z,0.70
2022-09-16T13:48:17.294Z,0.80
2022-09-16T13:50:48.859Z,0.50
2022-09-16T13:53:21.447Z,1.10
2022-09-16T13:55:49.135Z,0.40
2022-09-16T13:58:30.795Z,0.80
2022-09-16T14:01:13.185Z,0.60
2022-09-16T14:04:20.900Z,1.00
2022-09-16T14:06:53.683Z,1.00
2022-09-16T14:09:29.904Z,0.50
2022-09-16T14:12:05.281Z,0.70
2022-09-16T14:14:48.653Z,0.40
2022-09-16T14:17:27.706Z,0.60
2022-09-16T14:19:59.831Z,0.70
2022-09-16T14:22:28.251Z,0.50
2022-09-16T14:25:06.850Z,0.60
2022-09-16T14:27:44.407Z,0.50
2022-09-16T14:30:18.655Z,0.60
2022-09-16T14:32:46.733Z,0.70
2022-09-16T14:35:24.578Z,0.60
2022-09-16T14:37:56.153Z,0.60
2022-09-16T14:40:24.251Z,0.80
2022-09-16T14:43:00.433Z,0.90
2022-09-16T14:45:28.203Z,0.90
2022-09-16T14:47:55.667Z,0.70
2022-09-16T14:50:27.918Z,1.10
2022-09-16T14:52:57.859Z,0.80
2022-09-16T14:55:36.325Z,0.60
2022-09-16T14:58:03.844Z,0.50
2022-09-16T15:01:02.134Z,0.60
2022-09-16T15:03:38.402Z,0.70
2022-09-16T15:06:07.940Z,1.10
2022-09-16T15:08:55.656Z,0.80
2022-09-16T15:11:46.569Z,1.00
2022-09-16T15:14:11.462Z,0.80
2022-09-16T15:16:44.776Z,1.30
2022-09-16T15:19:34.669Z,1.70
2022-09-16T15:22:02.204Z,1.40
2022-09-16T15:24:34.071Z,1.20
2022-09-16T15:27:01.022Z,1.30
2022-09-16T15:29:33.395Z,2.10
2022-09-16T15:32:15.321Z,1.60
2022-09-16T15:34:44.056Z,1.50
2022-09-16T15:37:49.652Z,1.90
2022-09-16T15:40:42.717Z,1.70
2022-09-16T15:43:15.832Z,1.70
2022-09-16T15:45:43.889Z,1.50
2022-09-16T15:48:20.984Z,1.50
2022-09-16T15:50:56.783Z,1.30
2022-09-16T15:53:30.031Z,1.70
2022-09-16T15:55:57.388Z,1.50
2022-09-16T15:58:33.453Z,1.30
2022-09-16T16:01:03.172Z,1.90
2022-09-16T16:03:45.585Z,1.30
2022-09-16T16:06:13.185Z,2.80
2022-09-16T16:08:43.766Z,2.30
2022-09-16T16:11:12.881Z,1.30
2022-09-16T16:13:40.756Z,1.00
2022-09-16T16:16:08.584Z,1.80
2022-09-16T16:18:36.501Z,1.10
2022-09-16T16:21:13.146Z,1.40
2022-09-16T16:23:40.129Z,1.70
2022-09-16T16:26:08.123Z,1.70
2022-09-16T16:28:36.580Z,1.50
2022-09-16T16:31:13.003Z,1.50
2022-09-16T16:33:48.802Z,1.70
2022-09-16T16:36:16.777Z,1.80
2022-09-16T16:38:47.197Z,2.00
2022-09-16T16:41:22.742Z,2.40
2022-09-16T16:43:50.059Z,2.40
2022-09-16T16:46:18.064Z,2.50
2022-09-16T16:48:45.114Z,2.70
2022-09-16T16:51:13.389Z,4.50
2022-09-16T16:53:41.524Z,2.70
2022-09-16T16:56:14.842Z,2.60
2022-09-16T16:58:45.900Z,2.30
2022-09-16T17:01:19.852Z,2.20
2022-09-16T17:03:50.429Z,2.50
2022-09-16T17:08:44.832Z,3.10
2022-09-16T17:11:12.084Z,3.00
2022-09-16T17:13:40.871Z,2.70
2022-09-16T17:16:08.565Z,3.50
2022-09-16T17:18:36.810Z,3.30
2022-09-16T17:21:09.489Z,3.20
2022-09-16T17:23:36.308Z,2.90
2022-09-16T17:26:03.723Z,2.80
2022-09-16T17:28:30.525Z,3.60
2022-09-16T17:30:58.100Z,3.80
2022-09-16T17:33:26.039Z,4.60
2022-09-16T17:36:03.940Z,5.20
2022-09-16T17:38:30.809Z,6.00
2022-09-16T17:41:16.802Z,5.20
2022-09-16T17:43:44.782Z,4.70
2022-09-16T17:46:16.504Z,5.00
2022-09-16T17:48:44.005Z,4.90
2022-09-16T17:51:11.061Z,3.40
2022-09-16T17:53:38.280Z,3.80
2022-09-16T17:56:11.742Z,3.10
2022-09-16T17:58:40.705Z,3.50
2022-09-16T18:01:10.052Z,3.50
2022-09-16T18:03:37.386Z,3.70
2022-09-16T18:06:10.383Z,3.60
2022-09-16T18:08:37.540Z,3.90
2022-09-16T18:11:05.055Z,4.00
2022-09-16T18:13:33.499Z,3.80
2022-09-16T18:16:10.744Z,2.80
2022-09-16T18:18:39.322Z,2.50
2022-09-16T18:21:10.480Z,2.60
2022-09-16T18:23:38.614Z,2.40
2022-09-16T18:26:06.993Z,2.60
2022-09-16T18:28:58.291Z,2.60
2022-09-16T18:31:25.583Z,2.60
2022-09-16T18:33:56.042Z,2.70
2022-09-16T18:36:25.481Z,2.40
2022-09-16T18:38:53.535Z,5.20
2022-09-16T18:41:25.375Z,3.20
2022-09-16T18:43:55.346Z,2.30
2022-09-16T18:46:27.076Z,2.60
2022-09-16T18:48:54.043Z,2.50
2022-09-16T18:51:24.455Z,2.20
2022-09-16T18:56:21.541Z,2.40
2022-09-16T18:59:16.838Z,2.10
2022-09-16T19:01:38.144Z,2.50
2022-09-16T19:04:06.646Z,2.60
2022-09-16T19:06:38.246Z,2.10
2022-09-16T19:09:06.720Z,1.90
2022-09-16T19:11:34.407Z,2.30
2022-09-16T19:14:02.056Z,2.20
2022-09-16T19:16:28.907Z,2.40
2022-09-16T19:18:56.678Z,2.10
2022-09-16T19:21:23.974Z,2.00
2022-09-16T19:24:00.429Z,2.40
2022-09-16T19:26:31.142Z,2.10
2022-09-16T19:28:58.725Z,2.30
2022-09-16T19:31:25.933Z,2.30
2022-09-16T19:33:54.235Z,2.30
2022-09-16T19:36:24.808Z,2.20
2022-09-16T19:38:52.246Z,2.40
2022-09-16T19:41:20.527Z,2.40
2022-09-16T19:43:47.623Z,2.10
2022-09-16T19:46:17.159Z,1.90
2022-09-16T19:48:46.367Z,2.00
2022-09-16T19:51:14.530Z,2.50
2022-09-16T19:53:42.305Z,2.60
2022-09-16T19:56:14.279Z,2.40
2022-09-16T19:58:41.329Z,2.20
2022-09-16T20:01:10.616Z,2.50
2022-09-16T20:03:39.184Z,2.80
2022-09-16T20:06:13.154Z,2.60
2022-09-16T20:08:41.156Z,2.40
2022-09-16T20:11:13.864Z,2.40
2022-09-16T20:13:41.199Z,2.40
2022-09-16T20:16:08.879Z,2.70
2022-09-16T20:18:36.331Z,2.50
2022-09-16T20:21:07.722Z,2.20
2022-09-16T20:23:34.634Z,2.20
2022-09-16T20:26:06.499Z,2.80
2022-09-16T20:28:35.147Z,2.50
2022-09-16T20:31:02.352Z,2.30
2022-09-16T20:33:33.267Z,2.50
2022-09-16T20:36:11.812Z,2.80
2022-09-16T20:38:39.986Z,2.70
2022-09-16T20:41:08.501Z,2.80
2022-09-16T20:43:35.533Z,3.70
2022-09-16T20:46:15.685Z,3.70
2022-09-16T20:48:42.743Z,3.30
2022-09-16T20:51:11.951Z,3.40
2022-09-16T20:53:40.306Z,3.70
2022-09-16T20:56:10.282Z,3.90
2022-09-16T20:58:37.507Z,3.60
2022-09-16T21:01:20.768Z,3.80
2022-09-16T21:03:51.476Z,3.90
2022-09-16T21:06:18.731Z,4.40
2022-09-16T21:08:45.783Z,4.10
2022-09-16T21:11:13.587Z,3.90
2022-09-16T21:13:41.638Z,3.90
2022-09-16T21:16:10.298Z,4.20
2022-09-16T21:18:37.196Z,4.30
2022-09-16T21:21:09.246Z,4.50
2022-09-16T21:23:36.197Z,4.30
2022-09-16T21:26:16.672Z,4.10
2022-09-16T21:28:44.956Z,4.20
2022-09-16T21:31:13.699Z,4.00
2022-09-16T21:33:41.928Z,4.00
2022-09-16T21:36:11.409Z,4.40
2022-09-16T21:38:38.812Z,4.40
2022-09-16T21:41:09.498Z,4.30
2022-09-16T21:43:49.672Z,4.60
2022-09-16T21:46:19.378Z,4.00
2022-09-16T21:48:50.474Z,4.10
2022-09-16T21:51:19.396Z,4.10
2022-09-16T21:53:46.571Z,4.40
2022-09-16T21:56:18.499Z,5.20
2022-09-16T21:58:45.357Z,5.60
2022-09-16T22:01:16.958Z,4.20
2022-09-16T22:03:45.265Z,4.60
2022-09-16T22:06:13.277Z,4.30
2022-09-16T22:08:40.123Z,4.10
2022-09-16T22:11:09.126Z,4.40
2022-09-16T22:13:36.850Z,4.40
2022-09-16T22:16:04.814Z,4.50
2022-09-16T22:18:32.021Z,4.80
2022-09-16T22:21:03.171Z,5.20
2022-09-16T22:23:30.535Z,4.50
2022-09-16T22:25:58.519Z,4.50
2022-09-16T22:28:25.261Z,5.10
2022-09-16T22:30:52.008Z,5.80
2022-09-16T22:33:19.060Z,6.60
2022-09-16T22:35:46.130Z,6.30
2022-09-16T22:38:13.677Z,6.50
2022-09-16T22:40:41.028Z,6.00
2022-09-16T22:43:07.770Z,6.60
2022-09-16T22:45:34.717Z,6.50
2022-09-16T22:48:01.661Z,6.90
2022-09-16T22:50:28.405Z,6.60
2022-09-16T22:52:55.873Z,6.90
2022-09-16T22:55:23.233Z,7.70
2022-09-16T22:57:50.084Z,8.20
2022-09-16T23:00:16.926Z,8.20
2022-09-16T23:02:43.644Z,8.60
2022-09-16T23:05:10.899Z,8.50
2022-09-16T23:07:38.937Z,8.20
2022-09-16T23:10:10.444Z,9.00
2022-09-16T23:12:37.553Z,8.60
2022-09-16T23:15:06.144Z,8.50
2022-09-16T23:17:32.891Z,9.10
2022-09-16T23:20:00.157Z,8.60
2022-09-16T23:22:27.616Z,9.40
2022-09-16T23:24:54.372Z,9.90
2022-09-16T23:27:21.112Z,10.40
2022-09-16T23:29:48.167Z,10.80
2022-09-16T23:32:15.535Z,10.90
2022-09-16T23:34:42.894Z,10.50
2022-09-16T23:37:09.751Z,10.70
2022-09-16T23:39:36.900Z,10.60
2022-09-16T23:42:03.855Z,11.30
2022-09-16T23:44:31.525Z,10.80
2022-09-16T23:46:59.199Z,11.10
2022-09-16T23:49:26.036Z,11.50
2022-09-16T23:51:52.780Z,12.30
2022-09-16T23:54:20.349Z,11.80
2022-09-16T23:56:47.712Z,12.40
2022-09-16T23:59:15.381Z,13.40
